createdAt,value
2018-01-11T00:00:42.493Z,847.94
2018-01-11T00:01:42.362Z,847.91
2018-01-11T00:02:42.229Z,847.91
2018-01-11T00:03:42.131Z,847.91
2018-01-11T00:04:41.963Z,847.90
2018-01-11T00:05:41.833Z,847.87
2018-01-11T00:06:41.701Z,847.89
2018-01-11T00:07:41.570Z,847.91
2018-01-11T00:08:41.438Z,847.88
2018-01-11T00:09:41.306Z,847.87
2018-01-11T00:10:41.176Z,847.88
2018-01-11T00:11:41.042Z,847.92
2018-01-11T00:12:40.908Z,847.88
2018-01-11T00:13:40.781Z,847.88
2018-01-11T00:14:40.647Z,847.88
2018-01-11T00:15:40.515Z,847.88
2018-01-11T00:16:40.383Z,847.91
2018-01-11T00:17:40.249Z,847.87
2018-01-11T00:18:40.119Z,847.81
2018-01-11T00:19:39.987Z,847.83
2018-01-11T00:20:39.854Z,847.87
2018-01-11T00:21:39.723Z,847.86
2018-01-11T00:22:39.593Z,847.83
2018-01-11T00:23:39.460Z,847.86
2018-01-11T00:24:39.327Z,847.84
2018-01-11T00:25:39.198Z,847.82
2018-01-11T00:26:39.064Z,847.86
2018-01-11T00:27:38.932Z,847.80
2018-01-11T00:28:38.800Z,847.85
2018-01-11T00:29:38.673Z,847.84
2018-01-11T00:30:38.537Z,847.86
2018-01-11T00:31:38.408Z,847.86
2018-01-11T00:32:38.274Z,847.84
2018-01-11T00:33:38.143Z,847.85
2018-01-11T00:34:38.011Z,847.87
2018-01-11T00:35:37.879Z,847.85
2018-01-11T00:36:37.748Z,847.87
2018-01-11T00:37:37.615Z,847.87
2018-01-11T00:38:37.485Z,847.86
2018-01-11T00:39:37.352Z,847.85
2018-01-11T00:40:37.219Z,847.87
2018-01-11T00:41:37.088Z,847.85
2018-01-11T00:42:36.957Z,847.82
2018-01-11T00:43:36.829Z,847.83
2018-01-11T00:44:36.698Z,847.79
2018-01-11T00:45:36.561Z,847.78
2018-01-11T00:46:36.430Z,847.80
2018-01-11T00:47:36.298Z,847.80
2018-01-11T00:48:36.167Z,847.78
2018-01-11T00:49:36.034Z,847.76
2018-01-11T00:50:35.902Z,847.75
2018-01-11T00:51:35.771Z,847.75
2018-01-11T00:52:35.638Z,847.70
2018-01-11T00:53:35.507Z,847.72
2018-01-11T00:54:35.375Z,847.70
2018-01-11T00:55:35.244Z,847.68
2018-01-11T00:56:35.111Z,847.72
2018-01-11T00:57:34.980Z,847.69
2018-01-11T00:58:34.846Z,847.68
2018-01-11T00:59:34.715Z,847.69
2018-01-11T01:00:34.593Z,847.71
2018-01-11T01:01:34.473Z,847.74
2018-01-11T01:02:34.320Z,847.73
2018-01-11T01:03:34.190Z,847.72
2018-01-11T01:04:34.058Z,847.69
2018-01-11T01:05:33.927Z,847.69
2018-01-11T01:06:33.794Z,847.72
2018-01-11T01:07:33.663Z,847.71
2018-01-11T01:08:33.531Z,847.72
2018-01-11T01:09:33.401Z,847.72
2018-01-11T01:10:33.267Z,847.69
2018-01-11T01:11:33.135Z,847.71
2018-01-11T01:12:33.007Z,847.70
2018-01-11T01:13:32.877Z,847.66
2018-01-11T01:14:32.741Z,847.68
2018-01-11T01:15:32.610Z,847.68
2018-01-11T01:16:32.477Z,847.68
2018-01-11T01:17:32.348Z,847.69
2018-01-11T01:18:32.216Z,847.69
2018-01-11T01:19:32.085Z,847.68
2018-01-11T01:20:31.952Z,847.67
2018-01-11T01:21:31.820Z,847.68
2018-01-11T01:22:31.689Z,847.68
2018-01-11T01:23:31.556Z,847.67
2018-01-11T01:24:31.424Z,847.65
2018-01-11T01:25:31.297Z,847.67
2018-01-11T01:26:31.160Z,847.69
2018-01-11T01:27:31.029Z,847.71
2018-01-11T01:28:30.897Z,847.69
2018-01-11T01:29:30.768Z,847.68
2018-01-11T01:30:30.637Z,847.70
2018-01-11T01:31:30.506Z,847.69
2018-01-11T01:32:30.372Z,847.70
2018-01-11T01:33:30.240Z,847.68
2018-01-11T01:34:30.110Z,847.68
2018-01-11T01:35:29.977Z,847.70
2018-01-11T01:36:29.849Z,847.69
2018-01-11T01:37:29.714Z,847.67
2018-01-11T01:38:29.584Z,847.70
2018-01-11T01:39:29.452Z,847.73
2018-01-11T01:40:29.319Z,847.69
2018-01-11T01:41:29.187Z,847.71
2018-01-11T01:42:29.057Z,847.70
2018-01-11T01:43:28.927Z,847.71
2018-01-11T01:44:28.791Z,847.67
2018-01-11T01:45:28.664Z,847.73
2018-01-11T01:46:28.531Z,847.70
2018-01-11T01:47:28.400Z,847.68
2018-01-11T01:48:28.267Z,847.69
2018-01-11T01:49:28.139Z,847.67
2018-01-11T01:50:28.001Z,847.69
2018-01-11T01:51:27.870Z,847.65
2018-01-11T01:52:27.743Z,847.64
2018-01-11T01:53:27.607Z,847.63
2018-01-11T01:54:27.476Z,847.64
2018-01-11T01:55:27.345Z,847.62
2018-01-11T01:56:27.214Z,847.61
2018-01-11T01:57:27.080Z,847.64
2018-01-11T01:58:26.950Z,847.61
2018-01-11T01:59:26.818Z,847.56
2018-01-11T02:00:26.692Z,847.57
2018-01-11T02:01:26.555Z,847.57
2018-01-11T02:02:26.422Z,847.57
2018-01-11T02:03:26.295Z,847.55
2018-01-11T02:04:26.161Z,847.53
2018-01-11T02:05:26.028Z,847.56
2018-01-11T02:06:25.897Z,847.51
2018-01-11T02:07:25.764Z,847.54
2018-01-11T02:08:25.634Z,847.53
2018-01-11T02:09:25.506Z,847.51
2018-01-11T02:10:25.368Z,847.50
2018-01-11T02:11:25.239Z,847.51
2018-01-11T02:12:25.109Z,847.54
2018-01-11T02:13:24.982Z,847.54
2018-01-11T02:14:24.841Z,847.52
2018-01-11T02:15:24.713Z,847.50
2018-01-11T02:16:24.580Z,847.49
2018-01-11T02:17:24.455Z,847.52
2018-01-11T02:18:24.316Z,847.51
2018-01-11T02:19:24.185Z,847.49
2018-01-11T02:20:24.052Z,847.47
2018-01-11T02:21:23.918Z,847.50
2018-01-11T02:22:23.790Z,847.50
2018-01-11T02:23:23.655Z,847.48
2018-01-11T02:24:23.523Z,847.51
2018-01-11T02:25:23.390Z,847.48
2018-01-11T02:26:23.258Z,847.52
2018-01-11T02:27:23.125Z,847.53
2018-01-11T02:28:22.995Z,847.52
2018-01-11T02:29:22.861Z,847.49
2018-01-11T02:30:22.727Z,847.51
2018-01-11T02:31:22.598Z,847.52
2018-01-11T02:32:22.466Z,847.53
2018-01-11T02:33:22.338Z,847.51
2018-01-11T02:34:22.199Z,847.51
2018-01-11T02:35:22.069Z,847.51
2018-01-11T02:36:21.934Z,847.52
2018-01-11T02:37:21.802Z,847.49
2018-01-11T02:38:21.667Z,847.50
2018-01-11T02:39:21.537Z,847.52
2018-01-11T02:40:21.404Z,847.49
2018-01-11T02:41:21.273Z,847.52
2018-01-11T02:42:21.140Z,847.51
2018-01-11T02:43:21.008Z,847.52
2018-01-11T02:44:20.877Z,847.53
2018-01-11T02:45:20.744Z,847.53
2018-01-11T02:46:20.615Z,847.55
2018-01-11T02:47:20.482Z,847.54
2018-01-11T02:48:20.350Z,847.55
2018-01-11T02:49:20.215Z,847.52
2018-01-11T02:50:20.082Z,847.52
2018-01-11T02:51:19.950Z,847.52
2018-01-11T02:52:19.817Z,847.56
2018-01-11T02:53:19.685Z,847.56
2018-01-11T02:54:19.553Z,847.57
2018-01-11T02:55:19.422Z,847.57
2018-01-11T02:56:19.289Z,847.57
2018-01-11T02:57:19.156Z,847.60
2018-01-11T02:58:19.021Z,847.56
2018-01-11T02:59:18.889Z,847.59
2018-01-11T03:00:18.758Z,847.59
2018-01-11T03:01:18.623Z,847.55
2018-01-11T03:02:18.493Z,847.59
2018-01-11T03:03:18.357Z,847.62
2018-01-11T03:04:18.226Z,847.65
2018-01-11T03:05:18.100Z,847.63
2018-01-11T03:06:17.960Z,847.64
2018-01-11T03:07:17.829Z,847.62
2018-01-11T03:08:17.698Z,847.68
2018-01-11T03:09:17.563Z,847.69
2018-01-11T03:10:17.429Z,847.66
2018-01-11T03:11:17.302Z,847.68
2018-01-11T03:12:17.168Z,847.72
2018-01-11T03:13:17.035Z,847.69
2018-01-11T03:14:16.905Z,847.69
2018-01-11T03:15:16.773Z,847.72
2018-01-11T03:16:16.640Z,847.70
2018-01-11T03:17:16.506Z,847.71
2018-01-11T03:18:16.374Z,847.71
2018-01-11T03:19:16.260Z,847.66
2018-01-11T03:20:16.114Z,847.70
2018-01-11T03:21:15.978Z,847.74
2018-01-11T03:22:15.846Z,847.70
2018-01-11T03:23:15.713Z,847.70
2018-01-11T03:24:15.580Z,847.73
2018-01-11T03:25:15.448Z,847.68
2018-01-11T03:26:15.318Z,847.69
2018-01-11T03:27:15.184Z,847.71
2018-01-11T03:28:15.052Z,847.70
2018-01-11T03:29:14.923Z,847.67
2018-01-11T03:30:14.789Z,847.72
2018-01-11T03:31:14.657Z,847.71
2018-01-11T03:32:14.527Z,847.69
2018-01-11T03:33:14.393Z,847.66
2018-01-11T03:34:14.262Z,847.67
2018-01-11T03:35:14.130Z,847.66
2018-01-11T03:36:14.001Z,847.66
2018-01-11T03:37:13.865Z,847.63
2018-01-11T03:38:13.733Z,847.61
2018-01-11T03:39:13.603Z,847.65
2018-01-11T03:40:13.471Z,847.61
2018-01-11T03:41:13.340Z,847.61
2018-01-11T03:42:13.204Z,847.62
2018-01-11T03:43:13.075Z,847.62
2018-01-11T03:44:12.940Z,847.63
2018-01-11T03:45:12.810Z,847.64
2018-01-11T03:46:12.679Z,847.64
2018-01-11T03:47:12.546Z,847.68
2018-01-11T03:48:12.414Z,847.65
2018-01-11T03:49:12.282Z,847.64
2018-01-11T03:50:12.151Z,847.65
2018-01-11T03:51:12.020Z,847.66
2018-01-11T03:52:11.886Z,847.69
2018-01-11T03:53:11.757Z,847.65
2018-01-11T03:54:11.624Z,847.69
2018-01-11T03:55:11.489Z,847.66
2018-01-11T03:56:11.366Z,847.63
2018-01-11T03:57:11.227Z,847.63
2018-01-11T03:58:11.097Z,847.67
2018-01-11T03:59:10.964Z,847.67
2018-01-11T04:00:10.836Z,847.65
2018-01-11T04:01:10.701Z,847.68
2018-01-11T04:02:10.569Z,847.69
2018-01-11T04:03:10.436Z,847.66
2018-01-11T04:04:10.305Z,847.68
2018-01-11T04:05:10.241Z,847.71
2018-01-11T04:06:10.043Z,847.72
2018-01-11T04:07:09.909Z,847.68
2018-01-11T04:08:09.778Z,847.67
2018-01-11T04:09:09.648Z,847.65
2018-01-11T04:10:09.516Z,847.70
2018-01-11T04:11:09.384Z,847.66
2018-01-11T04:12:09.251Z,847.67
2018-01-11T04:13:09.122Z,847.67
2018-01-11T04:14:08.989Z,847.68
2018-01-11T04:15:08.855Z,847.68
2018-01-11T04:16:08.724Z,847.67
2018-01-11T04:17:08.592Z,847.67
2018-01-11T04:18:08.463Z,847.72
2018-01-11T04:19:08.330Z,847.73
2018-01-11T04:20:08.196Z,847.73
2018-01-11T04:21:08.065Z,847.68
2018-01-11T04:22:07.931Z,847.66
2018-01-11T04:23:07.802Z,847.70
2018-01-11T04:24:07.671Z,847.66
2018-01-11T04:25:07.540Z,847.69
2018-01-11T04:26:07.407Z,847.73
2018-01-11T04:27:07.273Z,847.70
2018-01-11T04:28:07.146Z,847.72
2018-01-11T04:29:07.012Z,847.69
2018-01-11T04:30:06.880Z,847.69
2018-01-11T04:31:06.752Z,847.71
2018-01-11T04:32:06.618Z,847.72
2018-01-11T04:33:06.484Z,847.72
2018-01-11T04:34:06.352Z,847.69
2018-01-11T04:35:06.223Z,847.71
2018-01-11T04:36:06.090Z,847.66
2018-01-11T04:37:05.960Z,847.70
2018-01-11T04:38:05.827Z,847.71
2018-01-11T04:39:05.694Z,847.69
2018-01-11T04:40:05.564Z,847.69
2018-01-11T04:41:05.430Z,847.71
2018-01-11T04:42:05.300Z,847.71
2018-01-11T04:43:05.170Z,847.70
2018-01-11T04:44:05.037Z,847.67
2018-01-11T04:45:04.908Z,847.70
2018-01-11T04:46:04.782Z,847.69
2018-01-11T04:47:04.642Z,847.71
2018-01-11T04:48:04.513Z,847.68
2018-01-11T04:49:04.376Z,847.67
2018-01-11T04:50:04.247Z,847.68
2018-01-11T04:51:04.115Z,847.68
2018-01-11T04:52:04.023Z,847.66
2018-01-11T04:53:03.855Z,847.69
2018-01-11T04:54:03.719Z,847.66
2018-01-11T04:55:03.608Z,847.68
2018-01-11T04:56:03.568Z,847.67
2018-01-11T04:57:03.326Z,847.66
2018-01-11T04:58:03.193Z,847.70
2018-01-11T04:59:03.061Z,847.70
2018-01-11T05:00:02.931Z,847.67
2018-01-11T05:01:02.800Z,847.68
2018-01-11T05:02:02.667Z,847.69
2018-01-11T05:03:02.535Z,847.69
2018-01-11T05:04:02.402Z,847.69
2018-01-11T05:05:02.275Z,847.70
2018-01-11T05:06:02.142Z,847.71
2018-01-11T05:07:02.009Z,847.69
2018-01-11T05:08:01.875Z,847.67
2018-01-11T05:09:01.744Z,847.68
2018-01-11T05:10:01.614Z,847.71
2018-01-11T05:11:01.481Z,847.69
2018-01-11T05:12:01.361Z,847.72
2018-01-11T05:13:01.219Z,847.74
2018-01-11T05:14:01.086Z,847.71
2018-01-11T05:15:00.952Z,847.72
2018-01-11T05:16:00.820Z,847.73
2018-01-11T05:17:00.691Z,847.72
2018-01-11T05:18:00.558Z,847.73
2018-01-11T05:19:00.426Z,847.75
2018-01-11T05:20:00.295Z,847.80
2018-01-11T05:21:00.162Z,847.76
2018-01-11T05:22:00.042Z,847.76
2018-01-11T05:22:59.896Z,847.80
2018-01-11T05:23:59.764Z,847.77
2018-01-11T05:24:59.631Z,847.76
2018-01-11T05:25:59.498Z,847.78
2018-01-11T05:26:59.368Z,847.81
2018-01-11T05:27:59.236Z,847.80
2018-01-11T05:28:59.105Z,847.79
2018-01-11T05:29:59.024Z,847.77
2018-01-11T05:30:58.841Z,847.79
2018-01-11T05:31:58.712Z,847.83
2018-01-11T05:32:58.574Z,847.79
2018-01-11T05:33:58.439Z,847.79
2018-01-11T05:34:58.322Z,847.79
2018-01-11T05:35:58.223Z,847.79
2018-01-11T05:36:58.045Z,847.79
2018-01-11T05:37:57.913Z,847.81
2018-01-11T05:38:57.780Z,847.81
2018-01-11T05:39:57.646Z,847.83
2018-01-11T05:40:57.514Z,847.86
2018-01-11T05:41:57.382Z,847.88
2018-01-11T05:42:57.281Z,847.88
2018-01-11T05:43:57.121Z,847.86
2018-01-11T05:44:56.985Z,847.89
2018-01-11T05:45:56.854Z,847.87
2018-01-11T05:46:56.735Z,847.92
2018-01-11T05:47:56.590Z,847.92
2018-01-11T05:48:56.457Z,847.92
2018-01-11T05:49:56.325Z,847.94
2018-01-11T05:50:56.211Z,847.88
2018-01-11T05:51:56.059Z,847.89
2018-01-11T05:52:55.929Z,847.90
2018-01-11T05:53:55.798Z,847.93
2018-01-11T05:54:55.664Z,847.90
2018-01-11T05:55:55.531Z,847.94
2018-01-11T05:56:55.401Z,847.89
2018-01-11T05:57:55.268Z,847.90
2018-01-11T05:58:55.228Z,847.90
2018-01-11T05:59:55.003Z,847.92
2018-01-11T06:00:54.872Z,847.95
2018-01-11T06:01:54.741Z,847.93
2018-01-11T06:02:54.609Z,847.89
2018-01-11T06:03:54.484Z,847.92
2018-01-11T06:04:54.345Z,847.95
2018-01-11T06:05:54.211Z,847.96
2018-01-11T06:06:54.079Z,847.97
2018-01-11T06:07:53.946Z,847.97
2018-01-11T06:08:53.816Z,847.97
2018-01-11T06:09:53.685Z,848.01
2018-01-11T06:10:53.551Z,848.04
2018-01-11T06:11:53.421Z,848.01
2018-01-11T06:12:53.288Z,847.99
2018-01-11T06:13:53.157Z,848.00
2018-01-11T06:14:53.021Z,848.00
2018-01-11T06:15:52.890Z,847.99
2018-01-11T06:16:52.756Z,848.00
2018-01-11T06:17:52.629Z,847.94
2018-01-11T06:18:52.491Z,847.97
2018-01-11T06:19:52.369Z,848.00
2018-01-11T06:20:52.230Z,847.99
2018-01-11T06:21:52.095Z,847.98
2018-01-11T06:22:51.965Z,847.97
2018-01-11T06:23:51.833Z,847.98
2018-01-11T06:24:51.700Z,847.96
2018-01-11T06:25:51.570Z,847.98
2018-01-11T06:26:51.432Z,847.97
2018-01-11T06:27:51.300Z,847.96
2018-01-11T06:28:51.168Z,847.98
2018-01-11T06:29:51.037Z,847.95
2018-01-11T06:30:50.903Z,847.99
2018-01-11T06:31:50.773Z,847.97
2018-01-11T06:32:50.638Z,848.01
2018-01-11T06:33:50.510Z,847.96
2018-01-11T06:34:51.375Z,847.98
2018-01-11T06:35:50.279Z,847.98
2018-01-11T06:36:50.108Z,847.94
2018-01-11T06:37:49.977Z,847.98
2018-01-11T06:38:49.844Z,847.96
2018-01-11T06:39:49.713Z,847.98
2018-01-11T06:40:49.577Z,847.98
2018-01-11T06:41:49.442Z,847.98
2018-01-11T06:42:49.311Z,847.97
2018-01-11T06:43:49.184Z,847.99
2018-01-11T06:44:49.049Z,847.98
2018-01-11T06:45:48.914Z,848.03
2018-01-11T06:46:48.781Z,848.02
2018-01-11T06:47:48.652Z,848.02
2018-01-11T06:48:49.521Z,848.01
2018-01-11T06:49:48.393Z,848.01
2018-01-11T06:50:48.255Z,848.01
2018-01-11T06:51:48.124Z,847.99
2018-01-11T06:52:47.995Z,847.97
2018-01-11T06:53:58.498Z,848.00
2018-01-11T06:54:47.739Z,848.02
2018-01-11T06:55:47.680Z,848.00
2018-01-11T06:56:47.466Z,848.01
2018-01-11T06:57:47.332Z,848.02
2018-01-11T06:58:47.204Z,848.03
2018-01-11T06:59:47.066Z,848.04
2018-01-11T07:00:46.937Z,848.08
2018-01-11T07:01:46.802Z,848.06
2018-01-11T07:02:46.670Z,848.08
2018-01-11T07:03:46.540Z,848.13
2018-01-11T07:04:46.408Z,848.13
2018-01-11T07:05:46.280Z,848.09
2018-01-11T07:06:46.143Z,848.09
2018-01-11T07:07:46.012Z,848.13
2018-01-11T07:08:45.924Z,848.14
2018-01-11T07:09:45.748Z,848.18
2018-01-11T07:10:45.616Z,848.17
2018-01-11T07:11:45.483Z,848.18
2018-01-11T07:12:45.349Z,848.23
2018-01-11T07:13:45.219Z,848.19
2018-01-11T07:14:45.088Z,848.21
2018-01-11T07:15:44.954Z,848.22
2018-01-11T07:16:44.820Z,848.23
2018-01-11T07:17:44.688Z,848.23
2018-01-11T07:18:44.560Z,848.27
2018-01-11T07:19:44.436Z,848.24
2018-01-11T07:20:44.292Z,848.24
2018-01-11T07:21:44.167Z,848.29
2018-01-11T07:22:44.026Z,848.31
2018-01-11T07:23:43.896Z,848.31
2018-01-11T07:24:43.767Z,848.29
2018-01-11T07:25:43.635Z,848.35
2018-01-11T07:26:43.497Z,848.33
2018-01-11T07:27:43.369Z,848.38
2018-01-11T07:28:43.258Z,848.34
2018-01-11T07:29:43.103Z,848.37
2018-01-11T07:30:42.969Z,848.38
2018-01-11T07:31:42.836Z,848.35
2018-01-11T07:32:42.705Z,848.38
2018-01-11T07:33:42.574Z,848.37
2018-01-11T07:34:42.442Z,848.39
2018-01-11T07:35:42.311Z,848.39
2018-01-11T07:36:42.180Z,848.37
2018-01-11T07:37:42.051Z,848.36
2018-01-11T07:38:41.913Z,848.39
2018-01-11T07:39:41.789Z,848.42
2018-01-11T07:40:41.651Z,848.40
2018-01-11T07:41:41.523Z,848.41
2018-01-11T07:42:47.007Z,848.45
2018-01-11T07:43:41.256Z,848.46
2018-01-11T07:44:41.128Z,848.40
2018-01-11T07:45:40.992Z,848.41
2018-01-11T07:46:40.860Z,848.40
2018-01-11T07:47:40.728Z,848.46
2018-01-11T07:48:40.598Z,848.46
2018-01-11T07:49:40.464Z,848.48
2018-01-11T07:50:40.333Z,848.50
2018-01-11T07:51:40.204Z,848.50
2018-01-11T07:52:40.068Z,848.54
2018-01-11T07:53:39.947Z,848.55
2018-01-11T07:54:39.807Z,848.50
2018-01-11T07:55:39.673Z,848.51
2018-01-11T07:56:39.542Z,848.55
2018-01-11T07:57:39.409Z,848.55
2018-01-11T07:58:39.278Z,848.59
2018-01-11T07:59:39.149Z,848.56
2018-01-11T08:00:39.020Z,848.58
2018-01-11T08:01:38.885Z,848.60
2018-01-11T08:02:38.753Z,848.61
2018-01-11T08:03:38.619Z,848.63
2018-01-11T08:04:38.486Z,848.64
2018-01-11T08:05:38.356Z,848.66
2018-01-11T08:06:38.229Z,848.67
2018-01-11T08:07:38.109Z,848.69
2018-01-11T08:08:37.960Z,848.70
2018-01-11T08:09:37.826Z,848.74
2018-01-11T08:10:37.695Z,848.75
2018-01-11T08:11:37.572Z,848.75
2018-01-11T08:12:37.434Z,848.77
2018-01-11T08:13:37.301Z,848.78
2018-01-11T08:14:37.170Z,848.80
2018-01-11T08:15:37.037Z,848.78
2018-01-11T08:16:43.510Z,848.80
2018-01-11T08:17:36.772Z,848.80
2018-01-11T08:18:36.643Z,848.80
2018-01-11T08:19:36.512Z,848.82
2018-01-11T08:20:36.377Z,848.86
2018-01-11T08:21:36.252Z,848.84
2018-01-11T08:22:36.117Z,848.87
2018-01-11T08:23:35.983Z,848.88
2018-01-11T08:24:35.855Z,848.90
2018-01-11T08:25:35.720Z,848.87
2018-01-11T08:26:35.588Z,848.89
2018-01-11T08:27:35.458Z,848.84
2018-01-11T08:28:35.328Z,848.85
2018-01-11T08:29:35.193Z,848.85
2018-01-11T08:30:35.065Z,848.84
2018-01-11T08:31:34.936Z,848.81
2018-01-11T08:32:34.802Z,848.81
2018-01-11T08:33:34.673Z,848.79
2018-01-11T08:34:34.537Z,848.80
2018-01-11T08:35:34.406Z,848.76
2018-01-11T08:36:34.277Z,848.78
2018-01-11T08:37:34.145Z,848.76
2018-01-11T08:38:34.013Z,848.77
2018-01-11T08:39:33.885Z,848.78
2018-01-11T08:40:33.751Z,848.78
2018-01-11T08:41:33.620Z,848.80
2018-01-11T08:42:33.489Z,848.78
2018-01-11T08:43:33.359Z,848.78
2018-01-11T08:44:33.227Z,848.81
2018-01-11T08:45:33.095Z,848.81
2018-01-11T08:46:32.966Z,848.82
2018-01-11T08:47:32.835Z,848.81
2018-01-11T08:48:32.711Z,848.82
2018-01-11T08:49:32.573Z,848.85
2018-01-11T08:50:32.441Z,848.86
2018-01-11T08:51:32.312Z,848.85
2018-01-11T08:52:32.181Z,848.85
2018-01-11T08:53:32.051Z,848.86
2018-01-11T08:54:31.919Z,848.88
2018-01-11T08:55:31.789Z,848.88
2018-01-11T08:56:31.660Z,848.87
2018-01-11T08:57:31.530Z,848.88
2018-01-11T08:58:31.399Z,848.90
2018-01-11T08:59:31.266Z,848.89
2018-01-11T09:00:31.143Z,848.90
2018-01-11T09:01:31.006Z,848.88
2018-01-11T09:02:30.879Z,848.91
2018-01-11T09:03:30.747Z,848.89
2018-01-11T09:04:30.617Z,848.90
2018-01-11T09:05:30.483Z,848.93
2018-01-11T09:06:30.362Z,848.92
2018-01-11T09:07:30.231Z,848.94
2018-01-11T09:08:30.096Z,848.96
2018-01-11T09:09:29.964Z,848.93
2018-01-11T09:10:29.835Z,848.93
2018-01-11T09:11:29.705Z,848.93
2018-01-11T09:12:29.574Z,848.96
2018-01-11T09:13:29.450Z,848.95
2018-01-11T09:14:29.316Z,848.93
2018-01-11T09:15:29.184Z,848.98
2018-01-11T09:16:29.055Z,848.97
2018-01-11T09:17:28.923Z,849.00
2018-01-11T09:18:28.794Z,848.98
2018-01-11T09:19:28.669Z,848.99
2018-01-11T09:20:28.536Z,849.01
2018-01-11T09:21:28.406Z,849.02
2018-01-11T09:22:28.281Z,849.02
2018-01-11T09:23:28.147Z,849.03
2018-01-11T09:24:28.017Z,849.05
2018-01-11T09:25:27.891Z,849.06
2018-01-11T09:26:27.760Z,849.04
2018-01-11T09:27:27.627Z,849.02
2018-01-11T09:28:27.505Z,849.05
2018-01-11T09:29:27.369Z,849.02
2018-01-11T09:30:27.236Z,849.04
2018-01-11T09:31:27.112Z,849.02
2018-01-11T09:32:26.979Z,849.02
2018-01-11T09:33:26.849Z,849.02
2018-01-11T09:34:26.719Z,848.98
2018-01-11T09:35:26.590Z,849.00
2018-01-11T09:36:26.460Z,849.00
2018-01-11T09:37:26.333Z,848.99
2018-01-11T09:38:26.201Z,848.96
2018-01-11T09:39:26.069Z,848.98
2018-01-11T09:40:25.938Z,848.98
2018-01-11T09:41:25.824Z,849.04
2018-01-11T09:42:25.681Z,849.02
2018-01-11T09:43:25.549Z,849.02
2018-01-11T09:44:25.419Z,849.01
2018-01-11T09:45:25.288Z,849.01
2018-01-11T09:46:25.157Z,849.00
2018-01-11T09:47:25.035Z,849.02
2018-01-11T09:48:24.898Z,849.02
2018-01-11T09:49:24.765Z,848.99
2018-01-11T09:50:24.636Z,849.02
2018-01-11T09:51:24.508Z,849.01
2018-01-11T09:52:24.379Z,849.01
2018-01-11T09:53:24.246Z,849.01
2018-01-11T09:54:24.116Z,849.02
2018-01-11T09:55:23.991Z,849.01
2018-01-11T09:56:23.856Z,848.99
2018-01-11T09:57:23.725Z,848.97
2018-01-11T09:58:23.600Z,848.97
2018-01-11T09:59:23.470Z,848.94
2018-01-11T10:00:23.341Z,848.92
2018-01-11T10:01:23.210Z,848.93
2018-01-11T10:02:23.089Z,848.96
2018-01-11T10:03:22.949Z,848.97
2018-01-11T10:04:22.819Z,848.97
2018-01-11T10:05:22.688Z,848.94
2018-01-11T10:06:22.560Z,848.94
2018-01-11T10:07:22.428Z,848.93
2018-01-11T10:08:22.302Z,848.94
2018-01-11T10:09:22.173Z,848.97
2018-01-11T10:10:22.040Z,848.96
2018-01-11T10:11:21.914Z,848.94
2018-01-11T10:12:21.785Z,848.95
2018-01-11T10:13:21.654Z,848.95
2018-01-11T10:14:21.525Z,848.95
2018-01-11T10:15:21.396Z,848.92
2018-01-11T10:16:21.267Z,848.91
2018-01-11T10:17:21.139Z,848.89
2018-01-11T10:18:21.011Z,848.91
2018-01-11T10:19:20.883Z,848.96
2018-01-11T10:20:20.758Z,848.91
2018-01-11T10:21:20.629Z,848.88
2018-01-11T10:22:20.501Z,848.89
2018-01-11T10:23:20.368Z,848.89
2018-01-11T10:24:20.240Z,848.87
2018-01-11T10:25:20.115Z,848.90
2018-01-11T10:26:19.985Z,848.89
2018-01-11T10:27:19.856Z,848.85
2018-01-11T10:28:19.726Z,848.85
2018-01-11T10:29:19.597Z,848.87
2018-01-11T10:30:19.473Z,848.89
2018-01-11T10:31:19.344Z,848.86
2018-01-11T10:32:19.221Z,848.89
2018-01-11T10:33:19.087Z,848.89
2018-01-11T10:34:18.961Z,848.87
2018-01-11T10:35:18.836Z,848.85
2018-01-11T10:36:18.709Z,848.89
2018-01-11T10:37:18.582Z,848.85
2018-01-11T10:38:18.455Z,848.84
2018-01-11T10:39:18.329Z,848.87
2018-01-11T10:40:18.204Z,848.86
2018-01-11T10:41:18.078Z,848.86
2018-01-11T10:42:17.951Z,848.82
2018-01-11T10:43:17.824Z,848.81
2018-01-11T10:44:17.698Z,848.82
2018-01-11T10:45:17.569Z,848.79
2018-01-11T10:46:17.445Z,848.80
2018-01-11T10:47:17.319Z,848.79
2018-01-11T10:48:17.190Z,848.82
2018-01-11T10:49:17.064Z,848.83
2018-01-11T10:50:16.939Z,848.81
2018-01-11T10:51:16.813Z,848.85
2018-01-11T10:52:16.688Z,848.86
2018-01-11T10:53:16.563Z,848.84
2018-01-11T10:54:16.439Z,848.81
2018-01-11T10:55:16.313Z,848.80
2018-01-11T10:56:16.187Z,848.81
2018-01-11T10:57:16.064Z,848.83
2018-01-11T10:58:15.963Z,848.82
2018-01-11T10:59:15.812Z,848.84
2018-01-11T11:00:15.694Z,848.82
2018-01-11T11:01:15.560Z,848.83
2018-01-11T11:02:15.434Z,848.87
2018-01-11T11:03:15.312Z,848.86
2018-01-11T11:04:15.181Z,848.80
2018-01-11T11:05:15.056Z,848.88
2018-01-11T11:06:14.931Z,848.82
2018-01-11T11:07:14.804Z,848.88
2018-01-11T11:08:14.679Z,848.86
2018-01-11T11:09:14.553Z,848.85
2018-01-11T11:10:14.425Z,848.86
2018-01-11T11:11:14.299Z,848.86
2018-01-11T11:12:14.173Z,848.84
2018-01-11T11:13:14.048Z,848.82
2018-01-11T11:14:13.921Z,848.79
2018-01-11T11:15:13.794Z,848.82
2018-01-11T11:16:13.670Z,848.78
2018-01-11T11:17:13.543Z,848.80
2018-01-11T11:18:13.415Z,848.85
2018-01-11T11:19:13.291Z,848.79
2018-01-11T11:20:13.166Z,848.80
2018-01-11T11:21:13.037Z,848.78
2018-01-11T11:22:12.912Z,848.81
2018-01-11T11:23:12.786Z,848.78
2018-01-11T11:24:12.661Z,848.77
2018-01-11T11:25:12.534Z,848.78
2018-01-11T11:26:12.407Z,848.83
2018-01-11T11:27:12.280Z,848.79
2018-01-11T11:28:12.154Z,848.79
2018-01-11T11:29:12.028Z,848.82
2018-01-11T11:30:11.900Z,848.76
2018-01-11T11:31:11.777Z,848.78
2018-01-11T11:32:11.650Z,848.77
2018-01-11T11:33:11.525Z,848.78
2018-01-11T11:34:11.400Z,848.75
2018-01-11T11:35:11.271Z,848.75
2018-01-11T11:36:11.144Z,848.74
2018-01-11T11:37:11.020Z,848.77
2018-01-11T11:38:10.891Z,848.73
2018-01-11T11:39:10.767Z,848.69
2018-01-11T11:40:10.639Z,848.70
2018-01-11T11:41:10.516Z,848.71
2018-01-11T11:42:10.388Z,848.72
2018-01-11T11:43:10.304Z,848.72
2018-01-11T11:44:10.136Z,848.74
2018-01-11T11:45:10.009Z,848.73
2018-01-11T11:46:09.880Z,848.73
2018-01-11T11:47:09.753Z,848.72
2018-01-11T11:48:09.632Z,848.73
2018-01-11T11:49:09.501Z,848.69
2018-01-11T11:50:09.375Z,848.72
2018-01-11T11:51:09.258Z,848.71
2018-01-11T11:52:09.124Z,848.73
2018-01-11T11:53:08.997Z,848.72
2018-01-11T11:54:08.874Z,848.70
2018-01-11T11:55:08.744Z,848.70
2018-01-11T11:56:08.620Z,848.71
2018-01-11T11:57:08.493Z,848.67
2018-01-11T11:58:08.365Z,848.67
2018-01-11T11:59:08.240Z,848.67
2018-01-11T12:00:08.113Z,848.65
2018-01-11T12:01:07.987Z,848.69
2018-01-11T12:02:07.861Z,848.70
2018-01-11T12:03:07.741Z,848.64
2018-01-11T12:04:07.609Z,848.64
2018-01-11T12:05:07.484Z,848.64
2018-01-11T12:06:07.359Z,848.65
2018-01-11T12:07:07.232Z,848.66
2018-01-11T12:08:07.105Z,848.64
2018-01-11T12:09:06.979Z,848.68
2018-01-11T12:10:06.853Z,848.68
2018-01-11T12:11:06.728Z,848.65
2018-01-11T12:12:06.601Z,848.62
2018-01-11T12:13:06.472Z,848.64
2018-01-11T12:14:06.345Z,848.67
2018-01-11T12:15:06.217Z,848.67
2018-01-11T12:16:06.093Z,848.69
2018-01-11T12:17:05.965Z,848.70
2018-01-11T12:18:05.837Z,848.70
2018-01-11T12:19:05.715Z,848.70
2018-01-11T12:20:05.585Z,848.67
2018-01-11T12:21:05.455Z,848.67
2018-01-11T12:22:05.328Z,848.67
2018-01-11T12:23:05.202Z,848.64
2018-01-11T12:24:05.073Z,848.65
2018-01-11T12:25:04.947Z,848.63
2018-01-11T12:26:04.821Z,848.65
2018-01-11T12:27:04.693Z,848.67